sensor_id;sensor_type;location;lat;lon;timestamp;temperature;humidity
2955;DHT22;1487;51.470;6.938;2023-03-15T00:00:33;4.10;99.90
2955;DHT22;1487;51.470;6.938;2023-03-15T00:03:00;4.20;99.90
2955;DHT22;1487;51.470;6.938;2023-03-15T00:05:29;4.20;99.90
2955;DHT22;1487;51.470;6.938;2023-03-15T00:07:58;4.20;99.90
2955;DHT22;1487;51.470;6.938;2023-03-15T00:10:26;4.20;99.90
2955;DHT22;1487;51.470;6.938;2023-03-15T00:12:53;4.20;99.90
2955;DHT22;1487;51.470;6.938;2023-03-15T00:15:20;4.20;99.90
2955;DHT22;1487;51.470;6.938;2023-03-15T00:17:47;4.20;99.90
2955;DHT22;1487;51.470;6.938;2023-03-15T00:20:14;4.20;99.90
2955;DHT22;1487;51.470;6.938;2023-03-15T00:22:43;4.20;99.90
2955;DHT22;1487;51.470;6.938;2023-03-15T00:25:12;4.20;99.90
2955;DHT22;1487;51.470;6.938;2023-03-15T00:27:39;4.20;99.90
2955;DHT22;1487;51.470;6.938;2023-03-15T00:30:06;4.20;99.90
2955;DHT22;1487;51.470;6.938;2023-03-15T00:32:33;4.20;99.90
2955;DHT22;1487;51.470;6.938;2023-03-15T00:35:00;4.20;99.90
2955;DHT22;1487;51.470;6.938;2023-03-15T00:37:27;4.10;99.90
2955;DHT22;1487;51.470;6.938;2023-03-15T00:39:54;4.20;99.90
2955;DHT22;1487;51.470;6.938;2023-03-15T00:42:23;4.10;99.90
2955;DHT22;1487;51.470;6.938;2023-03-15T00:44:52;4.00;99.90
2955;DHT22;1487;51.470;6.938;2023-03-15T00:47:19;3.90;99.90
2955;DHT22;1487;51.470;6.938;2023-03-15T00:49:45;3.70;99.90
2955;DHT22;1487;51.470;6.938;2023-03-15T00:52:12;3.60;99.90
2955;DHT22;1487;51.470;6.938;2023-03-15T00:54:39;3.50;99.90
2955;DHT22;1487;51.470;6.938;2023-03-15T00:57:06;3.40;99.90
2955;DHT22;1487;51.470;6.938;2023-03-15T00:59:34;3.40;99.90
2955;DHT22;1487;51.470;6.938;2023-03-15T01:02:01;3.40;99.90
2955;DHT22;1487;51.470;6.938;2023-03-15T01:04:28;3.30;99.90
2955;DHT22;1487;51.470;6.938;2023-03-15T01:06:56;3.30;99.90
2955;DHT22;1487;51.470;6.938;2023-03-15T01:09:23;3.20;99.90
2955;DHT22;1487;51.470;6.938;2023-03-15T01:11:50;3.10;99.90
2955;DHT22;1487;51.470;6.938;2023-03-15T01:14:17;3.00;99.90
2955;DHT22;1487;51.470;6.938;2023-03-15T01:16:45;3.00;99.90
2955;DHT22;1487;51.470;6.938;2023-03-15T01:19:12;3.00;99.90
2955;DHT22;1487;51.470;6.938;2023-03-15T01:21:39;2.90;99.90
2955;DHT22;1487;51.470;6.938;2023-03-15T01:24:09;2.80;99.90
2955;DHT22;1487;51.470;6.938;2023-03-15T01:26:37;2.70;99.90
2955;DHT22;1487;51.470;6.938;2023-03-15T01:29:03;2.60;99.90
2955;DHT22;1487;51.470;6.938;2023-03-15T01:31:30;2.60;99.90
2955;DHT22;1487;51.470;6.938;2023-03-15T01:33:59;2.50;99.90
2955;DHT22;1487;51.470;6.938;2023-03-15T01:36:26;2.40;99.90
2955;DHT22;1487;51.470;6.938;2023-03-15T01:38:53;2.40;99.90
2955;DHT22;1487;51.470;6.938;2023-03-15T01:41:20;2.40;99.90
2955;DHT22;1487;51.470;6.938;2023-03-15T01:43:49;2.40;99.90
2955;DHT22;1487;51.470;6.938;2023-03-15T01:46:26;2.40;99.90
2955;DHT22;1487;51.470;6.938;2023-03-15T01:49:01;2.40;99.90
2955;DHT22;1487;51.470;6.938;2023-03-15T01:51:35;2.40;99.90
2955;DHT22;1487;51.470;6.938;2023-03-15T01:54:06;2.40;99.90
2955;DHT22;1487;51.470;6.938;2023-03-15T01:56:35;2.40;99.90
2955;DHT22;1487;51.470;6.938;2023-03-15T01:59:05;2.40;99.90
2955;DHT22;1487;51.470;6.938;2023-03-15T02:01:35;2.40;99.90
2955;DHT22;1487;51.470;6.938;2023-03-15T02:04:07;2.50;99.90
2955;DHT22;1487;51.470;6.938;2023-03-15T02:06:37;2.50;99.90
2955;DHT22;1487;51.470;6.938;2023-03-15T02:09:07;2.50;99.90
2955;DHT22;1487;51.470;6.938;2023-03-15T02:11:34;2.50;99.90
2955;DHT22;1487;51.470;6.938;2023-03-15T02:14:02;2.50;99.90
2955;DHT22;1487;51.470;6.938;2023-03-15T02:16:31;2.60;99.90
2955;DHT22;1487;51.470;6.938;2023-03-15T02:18:59;2.60;99.90
2955;DHT22;1487;51.470;6.938;2023-03-15T02:21:39;2.60;99.90
2955;DHT22;1487;51.470;6.938;2023-03-15T02:24:20;2.60;99.90
2955;DHT22;1487;51.470;6.938;2023-03-15T02:26:52;2.70;99.90
2955;DHT22;1487;51.470;6.938;2023-03-15T02:29:24;2.70;99.90
2955;DHT22;1487;51.470;6.938;2023-03-15T02:31:52;2.70;99.90
2955;DHT22;1487;51.470;6.938;2023-03-15T02:34:19;2.70;99.90
2955;DHT22;1487;51.470;6.938;2023-03-15T02:36:51;2.80;99.90
2955;DHT22;1487;51.470;6.938;2023-03-15T02:39:19;2.80;99.90
2955;DHT22;1487;51.470;6.938;2023-03-15T02:41:50;2.80;99.90
2955;DHT22;1487;51.470;6.938;2023-03-15T02:44:22;2.80;99.90
2955;DHT22;1487;51.470;6.938;2023-03-15T02:46:52;2.80;99.90
2955;DHT22;1487;51.470;6.938;2023-03-15T02:49:22;2.80;99.90
2955;DHT22;1487;51.470;6.938;2023-03-15T02:51:49;2.80;99.90
2955;DHT22;1487;51.470;6.938;2023-03-15T02:54:16;2.80;99.90
2955;DHT22;1487;51.470;6.938;2023-03-15T02:56:43;2.70;99.90
2955;DHT22;1487;51.470;6.938;2023-03-15T02:59:10;2.80;99.90
2955;DHT22;1487;51.470;6.938;2023-03-15T03:01:39;2.80;99.90
2955;DHT22;1487;51.470;6.938;2023-03-15T03:04:06;2.80;99.90
2955;DHT22;1487;51.470;6.938;2023-03-15T03:06:33;2.70;99.90
2955;DHT22;1487;51.470;6.938;2023-03-15T03:09:02;2.70;99.90
2955;DHT22;1487;51.470;6.938;2023-03-15T03:11:29;2.70;99.90
2955;DHT22;1487;51.470;6.938;2023-03-15T03:13:56;2.70;99.90
2955;DHT22;1487;51.470;6.938;2023-03-15T03:16:23;2.60;99.90
2955;DHT22;1487;51.470;6.938;2023-03-15T03:18:51;2.60;99.90
2955;DHT22;1487;51.470;6.938;2023-03-15T03:21:18;2.60;99.90
2955;DHT22;1487;51.470;6.938;2023-03-15T03:23:45;2.60;99.90
2955;DHT22;1487;51.470;6.938;2023-03-15T03:26:14;2.60;99.90
2955;DHT22;1487;51.470;6.938;2023-03-15T03:28:42;2.60;99.90
2955;DHT22;1487;51.470;6.938;2023-03-15T03:31:15;2.50;99.90
2955;DHT22;1487;51.470;6.938;2023-03-15T03:33:42;2.40;99.90
2955;DHT22;1487;51.470;6.938;2023-03-15T03:36:10;2.30;99.90
2955;DHT22;1487;51.470;6.938;2023-03-15T03:38:39;2.40;99.90
2955;DHT22;1487;51.470;6.938;2023-03-15T03:41:06;2.30;99.90
2955;DHT22;1487;51.470;6.938;2023-03-15T03:43:33;2.30;99.90
2955;DHT22;1487;51.470;6.938;2023-03-15T03:45:59;2.30;99.90
2955;DHT22;1487;51.470;6.938;2023-03-15T03:48:26;2.30;99.90
2955;DHT22;1487;51.470;6.938;2023-03-15T03:50:53;2.30;99.90
2955;DHT22;1487;51.470;6.938;2023-03-15T03:53:21;2.30;99.90
2955;DHT22;1487;51.470;6.938;2023-03-15T03:55:48;2.40;99.90
2955;DHT22;1487;51.470;6.938;2023-03-15T03:58:15;2.40;99.90
2955;DHT22;1487;51.470;6.938;2023-03-15T04:00:42;2.40;99.90
2955;DHT22;1487;51.470;6.938;2023-03-15T04:03:09;2.40;99.90
2955;DHT22;1487;51.470;6.938;2023-03-15T04:05:36;2.50;99.90
2955;DHT22;1487;51.470;6.938;2023-03-15T04:08:03;2.50;99.90
2955;DHT22;1487;51.470;6.938;2023-03-15T04:10:32;2.50;99.90
2955;DHT22;1487;51.470;6.938;2023-03-15T04:13:00;2.50;99.90
2955;DHT22;1487;51.470;6.938;2023-03-15T04:15:27;2.60;99.90
2955;DHT22;1487;51.470;6.938;2023-03-15T04:17:54;2.60;99.90
2955;DHT22;1487;51.470;6.938;2023-03-15T04:20:22;2.60;99.90
2955;DHT22;1487;51.470;6.938;2023-03-15T04:22:49;2.60;99.90
2955;DHT22;1487;51.470;6.938;2023-03-15T04:25:16;2.60;99.90
2955;DHT22;1487;51.470;6.938;2023-03-15T04:27:44;2.60;99.90
2955;DHT22;1487;51.470;6.938;2023-03-15T04:30:23;2.60;99.90
2955;DHT22;1487;51.470;6.938;2023-03-15T04:32:51;2.60;99.90
2955;DHT22;1487;51.470;6.938;2023-03-15T04:35:24;2.60;99.90
2955;DHT22;1487;51.470;6.938;2023-03-15T04:37:50;2.60;99.90
2955;DHT22;1487;51.470;6.938;2023-03-15T04:40:18;2.70;99.90
2955;DHT22;1487;51.470;6.938;2023-03-15T04:42:46;2.60;99.90
2955;DHT22;1487;51.470;6.938;2023-03-15T04:45:13;2.60;99.90
2955;DHT22;1487;51.470;6.938;2023-03-15T04:47:39;2.60;99.90
2955;DHT22;1487;51.470;6.938;2023-03-15T04:50:08;2.70;99.90
2955;DHT22;1487;51.470;6.938;2023-03-15T04:52:35;2.70;99.90
2955;DHT22;1487;51.470;6.938;2023-03-15T04:55:02;2.60;99.90
2955;DHT22;1487;51.470;6.938;2023-03-15T04:57:29;2.60;99.90
2955;DHT22;1487;51.470;6.938;2023-03-15T04:59:57;2.50;99.90
2955;DHT22;1487;51.470;6.938;2023-03-15T05:02:24;2.40;99.90
2955;DHT22;1487;51.470;6.938;2023-03-15T05:04:51;2.30;99.90
2955;DHT22;1487;51.470;6.938;2023-03-15T05:07:18;2.40;99.90
2955;DHT22;1487;51.470;6.938;2023-03-15T05:09:44;2.40;99.90
2955;DHT22;1487;51.470;6.938;2023-03-15T05:12:12;2.40;99.90
2955;DHT22;1487;51.470;6.938;2023-03-15T05:14:39;2.50;99.90
2955;DHT22;1487;51.470;6.938;2023-03-15T05:17:07;2.60;99.90
2955;DHT22;1487;51.470;6.938;2023-03-15T05:19:35;2.50;99.90
2955;DHT22;1487;51.470;6.938;2023-03-15T05:22:02;2.50;99.90
2955;DHT22;1487;51.470;6.938;2023-03-15T05:24:29;2.60;99.90
2955;DHT22;1487;51.470;6.938;2023-03-15T05:26:56;2.60;99.90
2955;DHT22;1487;51.470;6.938;2023-03-15T05:29:23;2.50;99.90
2955;DHT22;1487;51.470;6.938;2023-03-15T05:31:50;2.60;99.90
2955;DHT22;1487;51.470;6.938;2023-03-15T05:34:19;2.60;99.90
2955;DHT22;1487;51.470;6.938;2023-03-15T05:36:48;2.50;99.90
2955;DHT22;1487;51.470;6.938;2023-03-15T05:39:15;2.60;99.90
2955;DHT22;1487;51.470;6.938;2023-03-15T05:41:42;2.60;99.90
2955;DHT22;1487;51.470;6.938;2023-03-15T05:44:09;2.60;99.90
2955;DHT22;1487;51.470;6.938;2023-03-15T05:46:36;2.70;99.90
2955;DHT22;1487;51.470;6.938;2023-03-15T05:49:03;2.70;99.90
2955;DHT22;1487;51.470;6.938;2023-03-15T05:51:31;2.70;99.90
2955;DHT22;1487;51.470;6.938;2023-03-15T05:53:58;2.70;99.90
2955;DHT22;1487;51.470;6.938;2023-03-15T05:56:24;2.70;99.90
2955;DHT22;1487;51.470;6.938;2023-03-15T05:58:51;2.70;99.90
2955;DHT22;1487;51.470;6.938;2023-03-15T06:01:18;2.70;99.90
2955;DHT22;1487;51.470;6.938;2023-03-15T06:03:45;2.60;99.90
2955;DHT22;1487;51.470;6.938;2023-03-15T06:06:12;2.60;99.90
2955;DHT22;1487;51.470;6.938;2023-03-15T06:08:40;2.60;99.90
2955;DHT22;1487;51.470;6.938;2023-03-15T06:11:07;2.60;99.90
2955;DHT22;1487;51.470;6.938;2023-03-15T06:13:34;2.60;99.90
2955;DHT22;1487;51.470;6.938;2023-03-15T06:16:00;2.60;99.90
2955;DHT22;1487;51.470;6.938;2023-03-15T06:18:27;2.60;99.90
2955;DHT22;1487;51.470;6.938;2023-03-15T06:20:54;2.70;99.90
2955;DHT22;1487;51.470;6.938;2023-03-15T06:23:21;2.70;99.90
2955;DHT22;1487;51.470;6.938;2023-03-15T06:25:49;2.80;99.90
2955;DHT22;1487;51.470;6.938;2023-03-15T06:28:16;2.90;99.90
2955;DHT22;1487;51.470;6.938;2023-03-15T06:30:42;2.90;99.90
2955;DHT22;1487;51.470;6.938;2023-03-15T06:33:09;3.00;99.90
2955;DHT22;1487;51.470;6.938;2023-03-15T06:35:36;3.00;99.90
2955;DHT22;1487;51.470;6.938;2023-03-15T06:38:03;3.10;99.90
2955;DHT22;1487;51.470;6.938;2023-03-15T06:40:30;3.10;99.90
2955;DHT22;1487;51.470;6.938;2023-03-15T06:42:58;3.10;99.90
2955;DHT22;1487;51.470;6.938;2023-03-15T06:45:30;3.10;99.90
2955;DHT22;1487;51.470;6.938;2023-03-15T06:47:57;3.20;99.90
2955;DHT22;1487;51.470;6.938;2023-03-15T06:50:24;3.20;99.90
2955;DHT22;1487;51.470;6.938;2023-03-15T06:52:51;3.30;99.90
2955;DHT22;1487;51.470;6.938;2023-03-15T06:55:18;3.30;99.90
2955;DHT22;1487;51.470;6.938;2023-03-15T06:57:45;3.30;99.90
2955;DHT22;1487;51.470;6.938;2023-03-15T07:00:14;3.30;99.90
2955;DHT22;1487;51.470;6.938;2023-03-15T07:02:41;3.30;99.90
2955;DHT22;1487;51.470;6.938;2023-03-15T07:05:09;3.40;99.90
2955;DHT22;1487;51.470;6.938;2023-03-15T07:07:36;3.40;99.90
2955;DHT22;1487;51.470;6.938;2023-03-15T07:10:04;3.50;99.90
2955;DHT22;1487;51.470;6.938;2023-03-15T07:12:31;3.60;99.90
2955;DHT22;1487;51.470;6.938;2023-03-15T07:14:58;3.60;99.90
2955;DHT22;1487;51.470;6.938;2023-03-15T07:17:26;3.80;99.90
2955;DHT22;1487;51.470;6.938;2023-03-15T07:19:53;3.80;99.90
2955;DHT22;1487;51.470;6.938;2023-03-15T07:22:20;3.80;99.90
2955;DHT22;1487;51.470;6.938;2023-03-15T07:24:48;3.70;99.90
2955;DHT22;1487;51.470;6.938;2023-03-15T07:27:14;3.70;99.90
2955;DHT22;1487;51.470;6.938;2023-03-15T07:29:41;4.00;99.90
2955;DHT22;1487;51.470;6.938;2023-03-15T07:32:08;4.20;99.90
2955;DHT22;1487;51.470;6.938;2023-03-15T07:34:37;4.50;99.90
2955;DHT22;1487;51.470;6.938;2023-03-15T07:37:04;4.60;99.90
2955;DHT22;1487;51.470;6.938;2023-03-15T07:39:30;4.60;99.90
2955;DHT22;1487;51.470;6.938;2023-03-15T07:41:58;4.60;99.90
2955;DHT22;1487;51.470;6.938;2023-03-15T07:44:25;4.60;99.90
2955;DHT22;1487;51.470;6.938;2023-03-15T07:46:52;4.60;99.90
2955;DHT22;1487;51.470;6.938;2023-03-15T07:49:19;4.60;99.90
2955;DHT22;1487;51.470;6.938;2023-03-15T07:51:47;4.70;99.90
2955;DHT22;1487;51.470;6.938;2023-03-15T07:54:14;4.80;99.90
2955;DHT22;1487;51.470;6.938;2023-03-15T07:56:41;5.00;99.90
2955;DHT22;1487;51.470;6.938;2023-03-15T07:59:08;5.10;99.90
2955;DHT22;1487;51.470;6.938;2023-03-15T08:01:35;5.10;99.90
2955;DHT22;1487;51.470;6.938;2023-03-15T08:04:03;5.20;99.90
2955;DHT22;1487;51.470;6.938;2023-03-15T08:06:29;5.20;99.90
2955;DHT22;1487;51.470;6.938;2023-03-15T08:08:58;5.30;99.90
2955;DHT22;1487;51.470;6.938;2023-03-15T08:11:26;5.40;99.90
2955;DHT22;1487;51.470;6.938;2023-03-15T08:13:52;5.40;99.90
2955;DHT22;1487;51.470;6.938;2023-03-15T08:16:19;5.40;99.90
2955;DHT22;1487;51.470;6.938;2023-03-15T08:18:46;5.60;99.90
2955;DHT22;1487;51.470;6.938;2023-03-15T08:21:13;6.20;99.90
2955;DHT22;1487;51.470;6.938;2023-03-15T08:23:41;6.80;99.90
2955;DHT22;1487;51.470;6.938;2023-03-15T08:26:09;7.80;99.90
2955;DHT22;1487;51.470;6.938;2023-03-15T08:28:36;9.40;99.90
2955;DHT22;1487;51.470;6.938;2023-03-15T08:31:05;10.40;99.90
2955;DHT22;1487;51.470;6.938;2023-03-15T08:33:32;10.70;99.90
2955;DHT22;1487;51.470;6.938;2023-03-15T08:35:59;10.30;99.90
2955;DHT22;1487;51.470;6.938;2023-03-15T08:38:26;10.80;99.90
2955;DHT22;1487;51.470;6.938;2023-03-15T08:40:55;11.70;99.90
2955;DHT22;1487;51.470;6.938;2023-03-15T08:43:23;11.20;99.90
2955;DHT22;1487;51.470;6.938;2023-03-15T08:45:50;10.40;99.90
2955;DHT22;1487;51.470;6.938;2023-03-15T08:48:17;10.10;99.90
2955;DHT22;1487;51.470;6.938;2023-03-15T08:50:45;9.80;99.90
2955;DHT22;1487;51.470;6.938;2023-03-15T08:53:12;9.30;99.90
2955;DHT22;1487;51.470;6.938;2023-03-15T08:55:39;8.80;99.90
2955;DHT22;1487;51.470;6.938;2023-03-15T08:58:06;8.80;99.90
2955;DHT22;1487;51.470;6.938;2023-03-15T09:00:34;10.10;99.90
2955;DHT22;1487;51.470;6.938;2023-03-15T09:03:02;11.10;99.90
2955;DHT22;1487;51.470;6.938;2023-03-15T09:05:29;12.20;99.90
2955;DHT22;1487;51.470;6.938;2023-03-15T09:07:55;12.40;99.90
2955;DHT22;1487;51.470;6.938;2023-03-15T09:10:23;12.00;99.90
2955;DHT22;1487;51.470;6.938;2023-03-15T09:12:51;11.50;99.90
2955;DHT22;1487;51.470;6.938;2023-03-15T09:15:19;12.10;99.90
2955;DHT22;1487;51.470;6.938;2023-03-15T09:17:48;12.90;99.90
2955;DHT22;1487;51.470;6.938;2023-03-15T09:20:15;12.50;99.90
2955;DHT22;1487;51.470;6.938;2023-03-15T09:22:48;11.70;99.90
2955;DHT22;1487;51.470;6.938;2023-03-15T09:25:15;10.20;99.90
2955;DHT22;1487;51.470;6.938;2023-03-15T09:27:42;9.80;99.90
2955;DHT22;1487;51.470;6.938;2023-03-15T09:30:10;9.60;99.90
2955;DHT22;1487;51.470;6.938;2023-03-15T09:32:38;9.20;99.90
2955;DHT22;1487;51.470;6.938;2023-03-15T09:35:09;9.20;99.90
2955;DHT22;1487;51.470;6.938;2023-03-15T09:37:37;9.40;99.90
2955;DHT22;1487;51.470;6.938;2023-03-15T09:40:06;9.30;99.90
2955;DHT22;1487;51.470;6.938;2023-03-15T09:42:41;8.90;99.90
2955;DHT22;1487;51.470;6.938;2023-03-15T09:45:19;8.40;99.90
2955;DHT22;1487;51.470;6.938;2023-03-15T09:47:59;8.00;99.90
2955;DHT22;1487;51.470;6.938;2023-03-15T09:50:34;8.00;99.90
2955;DHT22;1487;51.470;6.938;2023-03-15T09:53:04;7.70;99.90
2955;DHT22;1487;51.470;6.938;2023-03-15T09:55:34;7.60;99.90
2955;DHT22;1487;51.470;6.938;2023-03-15T09:58:03;7.40;99.90
2955;DHT22;1487;51.470;6.938;2023-03-15T10:00:37;7.20;99.90
2955;DHT22;1487;51.470;6.938;2023-03-15T10:03:05;7.20;99.90
2955;DHT22;1487;51.470;6.938;2023-03-15T10:05:41;8.30;99.90
2955;DHT22;1487;51.470;6.938;2023-03-15T10:08:11;10.80;99.90
2955;DHT22;1487;51.470;6.938;2023-03-15T10:10:45;12.50;99.90
2955;DHT22;1487;51.470;6.938;2023-03-15T10:13:30;12.70;99.90
2955;DHT22;1487;51.470;6.938;2023-03-15T10:16:05;13.30;96.10
2955;DHT22;1487;51.470;6.938;2023-03-15T10:18:51;14.10;92.20
2955;DHT22;1487;51.470;6.938;2023-03-15T10:21:30;15.50;92.10
2955;DHT22;1487;51.470;6.938;2023-03-15T10:24:01;16.80;83.10
2955;DHT22;1487;51.470;6.938;2023-03-15T10:26:33;18.00;82.30
2955;DHT22;1487;51.470;6.938;2023-03-15T10:29:09;19.20;72.30
2955;DHT22;1487;51.470;6.938;2023-03-15T10:31:40;18.60;69.70
2955;DHT22;1487;51.470;6.938;2023-03-15T10:34:08;18.80;71.10
2955;DHT22;1487;51.470;6.938;2023-03-15T10:36:37;19.10;71.10
2955;DHT22;1487;51.470;6.938;2023-03-15T10:39:10;17.80;64.50
2955;DHT22;1487;51.470;6.938;2023-03-15T10:41:40;15.60;67.60
2955;DHT22;1487;51.470;6.938;2023-03-15T10:44:12;14.10;69.40
2955;DHT22;1487;51.470;6.938;2023-03-15T10:46:39;14.30;76.60
2955;DHT22;1487;51.470;6.938;2023-03-15T10:49:11;15.80;75.40
2955;DHT22;1487;51.470;6.938;2023-03-15T10:51:42;16.60;64.60
2955;DHT22;1487;51.470;6.938;2023-03-15T10:54:15;16.00;65.50
2955;DHT22;1487;51.470;6.938;2023-03-15T10:56:45;16.10;65.00
2955;DHT22;1487;51.470;6.938;2023-03-15T10:59:18;15.80;67.80
2955;DHT22;1487;51.470;6.938;2023-03-15T11:01:50;16.20;65.80
2955;DHT22;1487;51.470;6.938;2023-03-15T11:04:19;16.50;65.20
2955;DHT22;1487;51.470;6.938;2023-03-15T11:06:49;17.80;65.00
2955;DHT22;1487;51.470;6.938;2023-03-15T11:09:18;18.50;59.90
2955;DHT22;1487;51.470;6.938;2023-03-15T11:12:08;18.00;57.30
2955;DHT22;1487;51.470;6.938;2023-03-15T11:14:37;16.80;57.90
2955;DHT22;1487;51.470;6.938;2023-03-15T11:17:06;16.60;59.20
2955;DHT22;1487;51.470;6.938;2023-03-15T11:19:39;17.10;61.90
2955;DHT22;1487;51.470;6.938;2023-03-15T11:22:11;18.10;60.60
2955;DHT22;1487;51.470;6.938;2023-03-15T11:24:39;18.90;58.00
2955;DHT22;1487;51.470;6.938;2023-03-15T11:27:11;19.00;57.80
2955;DHT22;1487;51.470;6.938;2023-03-15T11:29:39;19.50;57.10
2955;DHT22;1487;51.470;6.938;2023-03-15T11:32:12;19.80;56.30
2955;DHT22;1487;51.470;6.938;2023-03-15T11:34:43;19.40;54.70
2955;DHT22;1487;51.470;6.938;2023-03-15T11:37:16;20.10;56.70
2955;DHT22;1487;51.470;6.938;2023-03-15T11:39:49;21.00;53.20
2955;DHT22;1487;51.470;6.938;2023-03-15T11:42:21;20.90;52.70
2955;DHT22;1487;51.470;6.938;2023-03-15T11:44:52;21.20;54.00
2955;DHT22;1487;51.470;6.938;2023-03-15T11:47:29;21.70;52.50
2955;DHT22;1487;51.470;6.938;2023-03-15T11:49:58;21.10;52.20
2955;DHT22;1487;51.470;6.938;2023-03-15T11:52:28;20.70;50.90
2955;DHT22;1487;51.470;6.938;2023-03-15T11:54:57;20.70;50.50
2955;DHT22;1487;51.470;6.938;2023-03-15T11:57:37;19.40;49.20
2955;DHT22;1487;51.470;6.938;2023-03-15T12:03:40;19.20;51.10
2955;DHT22;1487;51.470;6.938;2023-03-15T12:06:13;19.50;54.20
2955;DHT22;1487;51.470;6.938;2023-03-15T12:09:01;20.20;51.50
2955;DHT22;1487;51.470;6.938;2023-03-15T12:11:37;19.90;49.40
2955;DHT22;1487;51.470;6.938;2023-03-15T12:14:19;18.90;49.50
2955;DHT22;1487;51.470;6.938;2023-03-15T12:16:46;18.90;51.60
2955;DHT22;1487;51.470;6.938;2023-03-15T12:19:15;19.20;52.00
2955;DHT22;1487;51.470;6.938;2023-03-15T12:21:45;19.80;53.10
2955;DHT22;1487;51.470;6.938;2023-03-15T12:24:21;19.90;50.20
2955;DHT22;1487;51.470;6.938;2023-03-15T12:26:56;18.60;48.30
2955;DHT22;1487;51.470;6.938;2023-03-15T12:29:24;17.30;49.40
2955;DHT22;1487;51.470;6.938;2023-03-15T12:31:58;17.80;51.90
2955;DHT22;1487;51.470;6.938;2023-03-15T12:34:36;18.80;50.70
2955;DHT22;1487;51.470;6.938;2023-03-15T12:37:12;18.80;50.30
2955;DHT22;1487;51.470;6.938;2023-03-15T12:39:47;18.60;52.00
2955;DHT22;1487;51.470;6.938;2023-03-15T12:45:43;17.40;50.70
2955;DHT22;1487;51.470;6.938;2023-03-15T12:48:24;16.90;52.30
2955;DHT22;1487;51.470;6.938;2023-03-15T12:50:57;16.50;50.40
2955;DHT22;1487;51.470;6.938;2023-03-15T12:53:35;15.90;51.00
2955;DHT22;1487;51.470;6.938;2023-03-15T12:59:05;15.70;53.60
2955;DHT22;1487;51.470;6.938;2023-03-15T13:01:35;16.30;56.00
2955;DHT22;1487;51.470;6.938;2023-03-15T13:07:32;18.00;53.10
2955;DHT22;1487;51.470;6.938;2023-03-15T13:13:18;17.30;52.80
2955;DHT22;1487;51.470;6.938;2023-03-15T13:16:00;17.90;52.40
2955;DHT22;1487;51.470;6.938;2023-03-15T13:18:33;17.80;51.90
2955;DHT22;1487;51.470;6.938;2023-03-15T13:21:10;18.20;50.20
2955;DHT22;1487;51.470;6.938;2023-03-15T13:23:42;19.00;47.70
2955;DHT22;1487;51.470;6.938;2023-03-15T13:26:30;20.00;50.50
2955;DHT22;1487;51.470;6.938;2023-03-15T13:29:03;21.00;49.70
2955;DHT22;1487;51.470;6.938;2023-03-15T13:31:33;20.80;46.80
2955;DHT22;1487;51.470;6.938;2023-03-15T13:34:10;20.70;44.80
2955;DHT22;1487;51.470;6.938;2023-03-15T13:36:39;20.20;44.70
2955;DHT22;1487;51.470;6.938;2023-03-15T13:39:09;20.00;44.70
2955;DHT22;1487;51.470;6.938;2023-03-15T13:41:40;20.20;45.30
2955;DHT22;1487;51.470;6.938;2023-03-15T13:44:15;20.20;46.20
2955;DHT22;1487;51.470;6.938;2023-03-15T13:46:42;20.40;46.00
2955;DHT22;1487;51.470;6.938;2023-03-15T13:49:10;20.70;47.70
2955;DHT22;1487;51.470;6.938;2023-03-15T13:51:38;20.20;46.10
2955;DHT22;1487;51.470;6.938;2023-03-15T13:54:07;19.80;47.10
2955;DHT22;1487;51.470;6.938;2023-03-15T13:56:42;20.70;46.00
2955;DHT22;1487;51.470;6.938;2023-03-15T13:59:11;21.00;47.60
2955;DHT22;1487;51.470;6.938;2023-03-15T14:01:40;20.50;46.20
2955;DHT22;1487;51.470;6.938;2023-03-15T14:04:11;19.90;47.80
2955;DHT22;1487;51.470;6.938;2023-03-15T14:06:39;20.00;47.30
2955;DHT22;1487;51.470;6.938;2023-03-15T14:09:09;19.90;44.50
2955;DHT22;1487;51.470;6.938;2023-03-15T14:11:37;19.40;45.90
2955;DHT22;1487;51.470;6.938;2023-03-15T14:14:23;19.00;45.00
2955;DHT22;1487;51.470;6.938;2023-03-15T14:16:51;18.30;45.00
2955;DHT22;1487;51.470;6.938;2023-03-15T14:19:20;18.10;47.50
2955;DHT22;1487;51.470;6.938;2023-03-15T14:21:51;17.60;47.10
2955;DHT22;1487;51.470;6.938;2023-03-15T14:24:23;17.30;48.10
2955;DHT22;1487;51.470;6.938;2023-03-15T14:26:52;17.00;45.60
2955;DHT22;1487;51.470;6.938;2023-03-15T14:29:26;16.30;46.00
2955;DHT22;1487;51.470;6.938;2023-03-15T14:31:57;16.30;46.10
2955;DHT22;1487;51.470;6.938;2023-03-15T14:34:30;16.80;47.70
2955;DHT22;1487;51.470;6.938;2023-03-15T14:36:58;17.10;47.00
2955;DHT22;1487;51.470;6.938;2023-03-15T14:39:30;16.90;48.20
2955;DHT22;1487;51.470;6.938;2023-03-15T14:41:57;16.80;48.70
2955;DHT22;1487;51.470;6.938;2023-03-15T14:44:25;16.50;48.50
2955;DHT22;1487;51.470;6.938;2023-03-15T14:46:52;16.30;47.80
2955;DHT22;1487;51.470;6.938;2023-03-15T14:49:22;16.20;47.80
2955;DHT22;1487;51.470;6.938;2023-03-15T14:51:52;15.90;47.00
2955;DHT22;1487;51.470;6.938;2023-03-15T14:54:22;15.90;46.10
2955;DHT22;1487;51.470;6.938;2023-03-15T14:56:49;14.60;45.40
2955;DHT22;1487;51.470;6.938;2023-03-15T14:59:16;14.20;47.90
2955;DHT22;1487;51.470;6.938;2023-03-15T15:01:48;13.90;49.10
2955;DHT22;1487;51.470;6.938;2023-03-15T15:04:15;13.00;48.00
2955;DHT22;1487;51.470;6.938;2023-03-15T15:06:43;12.40;49.00
2955;DHT22;1487;51.470;6.938;2023-03-15T15:09:20;12.00;50.00
2955;DHT22;1487;51.470;6.938;2023-03-15T15:11:49;11.40;49.70
2955;DHT22;1487;51.470;6.938;2023-03-15T15:14:16;10.90;49.70
2955;DHT22;1487;51.470;6.938;2023-03-15T15:16:44;10.70;50.10
2955;DHT22;1487;51.470;6.938;2023-03-15T15:19:14;10.60;50.60
2955;DHT22;1487;51.470;6.938;2023-03-15T15:21:42;10.50;51.70
2955;DHT22;1487;51.470;6.938;2023-03-15T15:24:13;10.40;53.00
2955;DHT22;1487;51.470;6.938;2023-03-15T15:26:41;10.50;53.10
2955;DHT22;1487;51.470;6.938;2023-03-15T15:29:11;10.50;52.30
2955;DHT22;1487;51.470;6.938;2023-03-15T15:31:38;10.50;52.50
2955;DHT22;1487;51.470;6.938;2023-03-15T15:34:07;10.50;54.20
2955;DHT22;1487;51.470;6.938;2023-03-15T15:36:38;10.40;55.00
2955;DHT22;1487;51.470;6.938;2023-03-15T15:39:12;10.30;55.40
2955;DHT22;1487;51.470;6.938;2023-03-15T15:41:40;10.20;54.60
2955;DHT22;1487;51.470;6.938;2023-03-15T15:44:13;10.10;54.50
2955;DHT22;1487;51.470;6.938;2023-03-15T15:46:41;10.10;56.00
2955;DHT22;1487;51.470;6.938;2023-03-15T15:49:09;10.10;55.40
2955;DHT22;1487;51.470;6.938;2023-03-15T15:51:37;9.90;55.40
2955;DHT22;1487;51.470;6.938;2023-03-15T15:54:12;9.80;55.00
2955;DHT22;1487;51.470;6.938;2023-03-15T15:56:44;9.50;55.00
2955;DHT22;1487;51.470;6.938;2023-03-15T15:59:13;9.40;57.30
2955;DHT22;1487;51.470;6.938;2023-03-15T16:01:41;9.30;57.40
2955;DHT22;1487;51.470;6.938;2023-03-15T16:04:09;9.30;56.50
2955;DHT22;1487;51.470;6.938;2023-03-15T16:06:36;9.10;57.50
2955;DHT22;1487;51.470;6.938;2023-03-15T16:09:05;9.00;57.70
2955;DHT22;1487;51.470;6.938;2023-03-15T16:11:32;9.00;57.20
2955;DHT22;1487;51.470;6.938;2023-03-15T16:13:59;9.00;56.20
2955;DHT22;1487;51.470;6.938;2023-03-15T16:16:26;8.90;54.80
2955;DHT22;1487;51.470;6.938;2023-03-15T16:18:53;8.80;54.60
2955;DHT22;1487;51.470;6.938;2023-03-15T16:21:27;8.70;54.70
2955;DHT22;1487;51.470;6.938;2023-03-15T16:24:00;8.60;54.60
2955;DHT22;1487;51.470;6.938;2023-03-15T16:26:29;8.50;55.40
2955;DHT22;1487;51.470;6.938;2023-03-15T16:28:56;8.50;56.40
2955;DHT22;1487;51.470;6.938;2023-03-15T16:31:22;8.40;59.00
2955;DHT22;1487;51.470;6.938;2023-03-15T16:33:49;8.20;58.70
2955;DHT22;1487;51.470;6.938;2023-03-15T16:36:17;8.20;59.30
2955;DHT22;1487;51.470;6.938;2023-03-15T16:38:46;8.20;58.80
2955;DHT22;1487;51.470;6.938;2023-03-15T16:41:15;8.10;58.20